Note: Wind direction arrow are unfortunately not working and shows just north


Skjærhalden gjestehavn  Skjærhalden gjestehavn


Lynradar Scandinavia more information blitzortung!


Rain radar more information rain snow radar


Besøk Våre Andre vær websider:

Template documentation
and downloads

And another site



Ingen spesiell oppmerksomhet om været er påkrevd.    Det er ingen Vær-advarsler

Værrapport fra de nærmeste flyplassene

   
ENRY - Rygge
Oppdatert: Aug 19 2018 12:20 am
Klart  
Klart  
   Vind: SV 6.2 m/s
Vind: SV 6.2 m/s
Temperatur: 15°C
Duggpunkt: 11°C
Luftfuktighet: 77%
Lufttrykk: 1009 hPa
Skyer: Klart
Sikt: 10 km
Detaljer skyer: Klart
ENRY 182220Z AUTO 22012KT 9999NDV NCD 15/11 Q1009
ENTO - Sandefjord
Oppdatert: Aug 19 2018 12:20 am
Klart  
Klart  
   Vind: SSV 4.6 m/s
Vind: SSV 4.6 m/s
Temperatur: 14°C
Duggpunkt: 12°C
Luftfuktighet: 88%
Lufttrykk: 1010 hPa
Skyer: Klart
Sikt: More than 10 km
Detaljer skyer: Klart
ENTO 182220Z AUTO 21009KT 9999 NCD 14/12 Q1010
ENSN - Skien
Oppdatert: Nov 9 2015 9:50 am
Oppdatert, se klokkeslett
Klart  
Klart  
   Vind: SSV 5.1 m/s<br />Gust to 5.1 m/s
Vind: SSV 5.1 m/s
Gust to 5.1 m/s
Temperatur: 7°C
Wind Chill: 4°C
Duggpunkt: 3°C
Luftfuktighet: 76%
Lufttrykk: 1000 hPa
Sikt: More than 10 km
Detaljer skyer: Klart
ENSN 090850Z 20010G22KT 150V240 CAVOK 07/03 Q1000
ENGM - Oslo
Oppdatert: Aug 19 2018 12:20 am
Klart  
Klart  
   Vind: Sør 3.6 m/s
Vind: Sør 3.6 m/s
Temperatur: 12°C
Duggpunkt: 10°C
Luftfuktighet: 88%
Lufttrykk: 1007 hPa
Sikt: More than 10 km
Detaljer skyer: Klart
ENGM 182220Z 19007KT CAVOK 12/10 Q1007
ESOK - Karlstad
Oppdatert: Aug 19 2018 12:20 am
For det meste Overskyet  
For det meste Overskyet  
   Vind: SV 4.6 m/s
Vind: SV 4.6 m/s
Temperatur: 15°C
Duggpunkt: 13°C
Luftfuktighet: 88%
Lufttrykk: 1009 hPa
Skyer: For det meste Overskyet
Sikt: More than 10 km
Detaljer skyer: Partly Cloudy 1700 ft,
For det meste Overskyet 2100 ft,
For det meste Overskyet 2500 ft
ESOK 182220Z AUTO 23009KT 9999 SCT017/// BKN021/// BKN025/// 15/13 Q1009
ESST - Torsby
Oppdatert: Aug 19 2018 12:20 am
Klart  
Klart  
   Vind: SSV 4.6 m/s
Vind: SSV 4.6 m/s
Temperatur: 14°C
Duggpunkt: 12°C
Luftfuktighet: 88%
Lufttrykk: 1008 hPa
Skyer: Klart
Sikt: More than 10 km
Detaljer skyer: Klart
ESST 182220Z AUTO 21009KT 9999 NCD 14/12 Q1008

Script utviklet av  Saratoga-weather.org Tilpasset for tamplaten av  Weerstation Leuven

Du finner stasjonens værinfo også på:

European Weather Network